Accueil
METAR-TAF:

METAR-TAF

Aéroports :

Tchita, Russie

latitude: 52-05N, longitude: 113-29E, altitude: 685 m

Observation

Le bulletin a été fait il y a 24 minutes, à 02:00 UTC
Vent 2 kt de direction variable
Température 19°C
Humidité 60%
Pression 1007 hPa
Visibilité 10 km ou plus

METAR: UIAA 190200Z VRB01MPS 9999 NSC 19/11 Q1007 R29/70D NOSIG RMK QFE697/0930

Heure: 11:24 (02:24 UTC)

Prévision

Le bulletin a été fait il y a 3 heures et 24 minutes, à 23:00 UTC
Prévision valable du 19 à 00 UTC au 19 à 24 UTC
Vent 10 kt de ouest
Visibilité 10 km ou plus
Nuages fragmentés à une hauteur de 3000 ft, Cumulonimbus.

TAF: UIAA 182300Z 1900/1924 27005MPS 9999 BKN030CB

Observations et prévisions météorologiques de plus de 4000 aéroports (messages METAR et TAF).

Les stations disponibles sont représentées par des disques jaunes et rouges sur la carte.

Passer la souris dessus pour voir le nom de la station.

Cliquer dessus pour voir les observations et prévisions météorologiques.

Pour changer de carte: cliquez sur les boutons verts avec une croix noire pour zoomer, sur le bouton vert avec un tiret pour effectuer un zoom arrière, ou sur les flèches vertes pour les cartes adjacentes.


METAR-TAF: